createdAt,value
2018-07-04T00:02:00.639Z,72.60
2018-07-04T00:04:40.840Z,73.10
2018-07-04T00:07:20.976Z,73.30
2018-07-04T00:10:01.132Z,73.30
2018-07-04T00:12:41.192Z,73.60
2018-07-04T00:15:21.411Z,73.30
2018-07-04T00:18:01.589Z,73.10
2018-07-04T00:20:41.802Z,73.10
2018-07-04T00:23:21.763Z,73.30
2018-07-04T00:26:01.720Z,73.30
2018-07-04T00:28:41.907Z,73.10
2018-07-04T00:31:21.954Z,73.00
2018-07-04T00:34:02.217Z,73.20
2018-07-04T00:36:42.164Z,73.20
2018-07-04T00:39:22.287Z,73.10
2018-07-04T00:42:02.300Z,72.90
2018-07-04T00:44:42.428Z,72.80
2018-07-04T00:47:22.371Z,72.70
2018-07-04T00:50:02.412Z,72.70
2018-07-04T00:52:42.580Z,72.60
2018-07-04T00:55:22.699Z,72.70
2018-07-04T00:58:02.787Z,72.80
2018-07-04T01:00:43.083Z,73.00
2018-07-04T01:03:23.073Z,73.10
2018-07-04T01:06:03.273Z,73.10
2018-07-04T01:08:43.507Z,73.20
2018-07-04T01:11:23.663Z,73.20
2018-07-04T01:14:03.685Z,73.30
2018-07-04T01:16:43.696Z,73.50
2018-07-04T01:19:23.820Z,73.40
2018-07-04T01:22:03.969Z,74.00
2018-07-04T01:24:45.054Z,73.50
2018-07-04T01:27:25.208Z,73.50
2018-07-04T01:30:06.248Z,73.60
2018-07-04T01:32:46.939Z,73.70
2018-07-04T01:35:27.151Z,73.70
2018-07-04T01:38:07.265Z,74.10
2018-07-04T01:40:47.349Z,74.50
2018-07-04T01:43:27.578Z,74.70
2018-07-04T01:46:07.627Z,74.60
2018-07-04T01:48:47.714Z,74.80
2018-07-04T01:51:27.891Z,75.00
2018-07-04T01:54:08.089Z,75.30
2018-07-04T01:56:48.335Z,75.30
2018-07-04T01:59:28.398Z,75.70
2018-07-04T02:02:08.477Z,76.10
2018-07-04T02:04:48.781Z,76.50
2018-07-04T02:07:28.970Z,76.70
2018-07-04T02:10:08.918Z,76.60
2018-07-04T02:12:48.992Z,76.50
2018-07-04T02:15:29.011Z,76.00
2018-07-04T02:18:09.244Z,75.80
2018-07-04T02:20:49.329Z,75.70
2018-07-04T02:23:29.484Z,76.00
2018-07-04T02:26:09.639Z,75.60
2018-07-04T02:28:50.385Z,75.60
2018-07-04T02:31:30.660Z,75.20
2018-07-04T02:34:10.753Z,74.90
2018-07-04T02:36:51.251Z,74.90
2018-07-04T02:39:31.305Z,75.00
2018-07-04T02:42:11.391Z,75.10
2018-07-04T02:44:51.422Z,75.10
2018-07-04T02:47:31.597Z,75.10
2018-07-04T02:50:11.647Z,75.60
2018-07-04T02:52:51.742Z,75.50
2018-07-04T02:55:31.721Z,75.90
2018-07-04T02:58:11.803Z,76.20
2018-07-04T03:00:51.925Z,76.30
2018-07-04T03:03:32.053Z,76.30
2018-07-04T03:06:12.243Z,76.60
2018-07-04T03:08:52.599Z,76.60
2018-07-04T03:11:32.826Z,76.70
2018-07-04T03:14:13.008Z,76.60
2018-07-04T03:16:53.090Z,76.50
2018-07-04T03:19:33.351Z,76.70
2018-07-04T03:22:13.272Z,76.70
2018-07-04T03:24:53.325Z,77.00
2018-07-04T03:27:33.401Z,77.00
2018-07-04T03:30:13.754Z,76.90
2018-07-04T03:32:54.409Z,76.30
2018-07-04T03:35:34.488Z,76.60
2018-07-04T03:38:14.692Z,76.70
2018-07-04T03:40:55.067Z,76.90
2018-07-04T03:43:35.191Z,76.70
2018-07-04T03:46:15.412Z,76.40
2018-07-04T03:48:55.435Z,76.70
2018-07-04T03:51:35.555Z,76.60
2018-07-04T03:54:15.639Z,76.60
2018-07-04T03:56:55.787Z,76.80
2018-07-04T03:59:36.087Z,77.20
2018-07-04T04:02:16.164Z,77.20
2018-07-04T04:04:56.908Z,77.30
2018-07-04T04:07:36.978Z,77.50
2018-07-04T04:10:17.115Z,77.50
2018-07-04T04:12:57.161Z,77.40
2018-07-04T04:15:37.220Z,77.20
2018-07-04T04:18:17.240Z,77.40
2018-07-04T04:20:57.466Z,77.60
2018-07-04T04:23:37.481Z,77.60
2018-07-04T04:26:17.429Z,77.70
2018-07-04T04:28:57.683Z,77.40
2018-07-04T04:31:37.750Z,77.30
2018-07-04T04:34:17.912Z,77.00
2018-07-04T04:36:58.765Z,76.80
2018-07-04T04:39:38.942Z,76.40
2018-07-04T04:42:19.156Z,76.30
2018-07-04T04:44:59.796Z,76.10
2018-07-04T04:47:41.208Z,76.40
2018-07-04T04:50:21.788Z,76.40
2018-07-04T04:53:02.566Z,76.00
2018-07-04T04:55:42.726Z,75.90
2018-07-04T04:58:22.688Z,75.60
2018-07-04T05:01:02.817Z,75.50
2018-07-04T05:03:42.795Z,75.30
2018-07-04T05:06:22.937Z,75.10
2018-07-04T05:09:03.200Z,75.00
2018-07-04T05:11:43.231Z,74.90
2018-07-04T05:14:23.468Z,74.80
2018-07-04T05:17:03.813Z,74.60
2018-07-04T05:19:43.977Z,74.60
2018-07-04T05:22:24.274Z,74.50
2018-07-04T05:25:04.320Z,74.40
2018-07-04T05:27:44.588Z,74.20
2018-07-04T05:30:24.584Z,74.20
2018-07-04T05:33:04.924Z,74.10
2018-07-04T05:35:45.076Z,74.20
2018-07-04T05:38:25.292Z,74.00
2018-07-04T05:41:05.587Z,74.00
2018-07-04T05:43:45.802Z,73.90
2018-07-04T05:46:26.548Z,73.90
2018-07-04T05:49:06.600Z,73.90
2018-07-04T05:51:47.035Z,73.80
2018-07-04T05:54:27.280Z,73.80
2018-07-04T05:57:07.352Z,73.70
2018-07-04T05:59:47.569Z,74.50
2018-07-04T06:02:27.833Z,73.60
2018-07-04T06:05:07.996Z,73.50
2018-07-04T06:07:48.190Z,73.50
2018-07-04T06:10:28.185Z,73.50
2018-07-04T06:13:09.071Z,73.40
2018-07-04T06:15:49.168Z,73.30
2018-07-04T06:18:30.172Z,73.30
2018-07-04T06:21:10.851Z,73.30
2018-07-04T06:23:51.140Z,73.20
2018-07-04T06:26:31.207Z,73.10
2018-07-04T06:29:11.243Z,73.10
2018-07-04T06:31:51.387Z,73.10
2018-07-04T06:34:31.394Z,73.00
2018-07-04T06:37:11.374Z,72.90
2018-07-04T06:39:39.100Z,72.90
2018-07-04T06:42:06.896Z,72.90
2018-07-04T06:44:34.757Z,72.90
2018-07-04T06:47:02.530Z,72.90
2018-07-04T06:49:31.138Z,72.90
2018-07-04T06:51:59.377Z,72.90
2018-07-04T06:54:27.068Z,72.80
2018-07-04T06:56:54.754Z,72.70
2018-07-04T06:59:22.448Z,73.40
2018-07-04T07:01:50.269Z,72.60
2018-07-04T07:04:30.348Z,72.60
2018-07-04T07:07:10.221Z,72.50
2018-07-04T07:09:50.379Z,72.40
2018-07-04T07:12:30.615Z,72.40
2018-07-04T07:15:12.301Z,72.30
2018-07-04T07:17:52.396Z,72.20
2018-07-04T07:20:32.409Z,72.30
2018-07-04T07:23:13.533Z,72.10
2018-07-04T07:25:53.906Z,72.20
2018-07-04T07:28:34.060Z,72.10
2018-07-04T07:31:14.308Z,72.10
2018-07-04T07:33:54.405Z,72.00
2018-07-04T07:36:34.658Z,71.90
2018-07-04T07:41:49.052Z,71.90
2018-07-04T07:44:29.144Z,72.00
2018-07-04T07:47:09.360Z,71.90
2018-07-04T07:49:49.432Z,71.90
2018-07-04T07:52:29.652Z,71.90
2018-07-04T07:55:09.673Z,71.90
2018-07-04T07:57:49.812Z,71.90
2018-07-04T08:00:30.018Z,71.80
2018-07-04T08:05:44.805Z,71.80
2018-07-04T08:08:24.804Z,71.90
2018-07-04T08:11:04.993Z,71.80
2018-07-04T08:13:45.161Z,71.90
2018-07-04T08:16:25.380Z,71.90
2018-07-04T08:19:05.433Z,71.80
2018-07-04T08:21:45.706Z,71.90
2018-07-04T08:24:26.562Z,72.10
2018-07-04T08:27:07.109Z,72.20
2018-07-04T08:29:47.263Z,72.30
2018-07-04T08:32:27.369Z,72.30
2018-07-04T08:35:07.527Z,72.30
2018-07-04T08:37:47.665Z,72.50
2018-07-04T08:40:27.784Z,72.50
2018-07-04T08:43:07.837Z,72.50
2018-07-04T08:45:47.837Z,72.50
2018-07-04T08:48:27.992Z,72.50
2018-07-04T08:51:08.401Z,72.50
2018-07-04T08:53:48.424Z,72.50
2018-07-04T08:56:29.396Z,72.50
2018-07-04T08:59:09.518Z,72.50
2018-07-04T09:01:49.935Z,72.60
2018-07-04T09:04:30.089Z,72.60
2018-07-04T09:07:10.184Z,72.60
2018-07-04T09:09:50.368Z,72.50
2018-07-04T09:12:30.477Z,72.60
2018-07-04T09:15:10.560Z,72.50
2018-07-04T09:20:24.609Z,72.70
2018-07-04T09:23:04.751Z,72.60
2018-07-04T09:25:44.743Z,72.70
2018-07-04T09:28:25.341Z,72.60
2018-07-04T09:31:05.623Z,72.70
2018-07-04T09:33:45.700Z,72.60
2018-07-04T09:36:26.054Z,72.60
2018-07-04T09:39:06.484Z,72.50
2018-07-04T09:41:46.581Z,72.50
2018-07-04T09:44:26.712Z,72.50
2018-07-04T09:47:06.782Z,72.50
2018-07-04T09:49:46.861Z,72.50
2018-07-04T09:52:26.938Z,72.50
2018-07-04T09:55:06.967Z,72.50
2018-07-04T09:57:47.204Z,72.60
2018-07-04T10:00:28.849Z,72.40
2018-07-04T10:03:10.080Z,72.50
2018-07-04T10:12:48.781Z,72.40
2018-07-04T10:15:29.020Z,72.50
2018-07-04T10:18:09.203Z,72.60
2018-07-04T10:20:49.272Z,72.60
2018-07-04T10:23:29.379Z,72.50
2018-07-04T10:26:09.573Z,72.50
2018-07-04T10:28:49.707Z,72.50
2018-07-04T10:31:30.000Z,72.50
2018-07-04T10:34:10.407Z,72.50
2018-07-04T10:36:50.520Z,72.50
2018-07-04T10:39:30.573Z,72.50
2018-07-04T10:42:10.521Z,72.30
2018-07-04T10:44:50.639Z,72.40
2018-07-04T10:47:30.739Z,72.40
2018-07-04T10:50:11.081Z,72.40
2018-07-04T10:52:51.115Z,72.40
2018-07-04T10:55:31.304Z,72.30
2018-07-04T10:58:11.585Z,72.30
2018-07-04T11:00:51.671Z,72.30
2018-07-04T11:03:31.684Z,72.30
2018-07-04T11:06:12.284Z,72.20
2018-07-04T11:08:52.447Z,72.30
2018-07-04T11:11:32.582Z,72.20
2018-07-04T11:14:12.573Z,72.20
2018-07-04T11:16:52.784Z,72.10
2018-07-04T11:19:32.796Z,72.10
2018-07-04T11:24:46.974Z,72.20
2018-07-04T11:27:27.117Z,72.10
2018-07-04T11:30:07.262Z,72.10
2018-07-04T11:32:47.329Z,72.10
2018-07-04T11:35:27.707Z,72.10
2018-07-04T11:40:42.230Z,72.00
2018-07-04T11:43:22.149Z,72.00
2018-07-04T11:45:56.321Z,72.00
2018-07-04T11:48:24.268Z,71.90
2018-07-04T11:50:52.966Z,71.90
2018-07-04T11:53:20.640Z,71.80
2018-07-04T11:55:48.374Z,71.80
2018-07-04T11:58:16.676Z,71.70
2018-07-04T12:00:44.722Z,71.70
2018-07-04T12:03:15.808Z,71.70
2018-07-04T12:05:57.898Z,71.60
2018-07-04T12:08:26.032Z,71.60
2018-07-04T12:10:54.290Z,71.60
2018-07-04T12:13:23.104Z,72.30
2018-07-04T12:15:51.617Z,71.60
2018-07-04T12:18:19.346Z,71.50
2018-07-04T12:20:47.287Z,71.50
2018-07-04T12:23:15.520Z,71.50
2018-07-04T12:25:44.403Z,71.50
2018-07-04T12:28:12.093Z,71.40
2018-07-04T12:30:39.856Z,71.80
2018-07-04T12:33:09.171Z,71.30
2018-07-04T12:35:36.872Z,71.40
2018-07-04T12:38:04.625Z,71.30
2018-07-04T12:40:32.728Z,71.30
2018-07-04T12:43:00.484Z,71.20
2018-07-04T12:45:28.233Z,71.20
2018-07-04T12:47:55.916Z,71.20
2018-07-04T12:50:28.209Z,71.20
2018-07-04T12:52:56.100Z,71.20
2018-07-04T12:55:39.576Z,71.20
2018-07-04T12:58:20.376Z,71.20
2018-07-04T13:01:00.443Z,71.20
2018-07-04T13:06:14.752Z,71.30
2018-07-04T13:08:54.742Z,71.20
2018-07-04T13:11:35.272Z,71.10
2018-07-04T13:14:15.532Z,71.20
2018-07-04T13:16:55.788Z,71.20
2018-07-04T13:19:36.137Z,71.20
2018-07-04T13:22:16.294Z,71.10
2018-07-04T13:24:56.496Z,71.20
2018-07-04T13:27:36.648Z,71.10
2018-07-04T13:32:50.870Z,71.20
2018-07-04T13:35:31.064Z,71.20
2018-07-04T13:38:11.244Z,71.10
2018-07-04T13:40:51.387Z,71.20
2018-07-04T13:43:31.500Z,71.60
2018-07-04T13:46:11.460Z,71.40
2018-07-04T13:48:51.596Z,71.30
2018-07-04T13:51:31.776Z,71.40
2018-07-04T13:54:11.909Z,71.40
2018-07-04T13:56:52.032Z,71.60
2018-07-04T13:59:32.229Z,71.50
2018-07-04T14:02:12.147Z,71.50
2018-07-04T14:04:52.247Z,71.40
2018-07-04T14:07:32.433Z,71.30
2018-07-04T14:10:12.588Z,71.30
2018-07-04T14:12:52.923Z,71.30
2018-07-04T14:15:33.245Z,71.30
2018-07-04T14:18:13.465Z,71.30
2018-07-04T14:20:53.614Z,71.30
2018-07-04T14:23:33.684Z,71.30
2018-07-04T14:26:14.173Z,71.30
2018-07-04T14:28:54.393Z,71.20
2018-07-04T14:31:34.561Z,71.30
2018-07-04T14:34:14.650Z,71.30
2018-07-04T14:36:54.603Z,71.30
2018-07-04T14:39:34.671Z,71.30
2018-07-04T14:42:14.804Z,71.30
2018-07-04T14:44:55.049Z,71.30
2018-07-04T14:47:35.514Z,71.30
2018-07-04T14:50:15.709Z,71.30
2018-07-04T14:52:55.957Z,71.30
2018-07-04T14:55:35.793Z,71.30
2018-07-04T14:58:15.931Z,71.20
2018-07-04T15:00:56.010Z,71.30
2018-07-04T15:03:35.948Z,71.20
2018-07-04T15:06:15.913Z,71.20
2018-07-04T15:08:55.952Z,71.20
2018-07-04T15:11:36.131Z,71.10
2018-07-04T15:14:16.271Z,71.20
2018-07-04T15:16:56.399Z,71.10
2018-07-04T15:19:36.589Z,71.10
2018-07-04T15:22:16.944Z,71.00
2018-07-04T15:24:58.185Z,71.20
2018-07-04T15:27:39.496Z,71.50
2018-07-04T15:30:21.431Z,71.50
2018-07-04T15:33:02.088Z,71.60
2018-07-04T15:35:43.419Z,71.60
2018-07-04T15:38:23.966Z,71.70
2018-07-04T15:41:04.068Z,71.80
2018-07-04T15:43:44.097Z,71.80
2018-07-04T15:46:24.217Z,72.60
2018-07-04T15:49:04.245Z,71.90
2018-07-04T15:51:45.045Z,71.90
2018-07-04T15:54:25.253Z,71.90
2018-07-04T15:57:05.305Z,71.80
2018-07-04T15:59:45.547Z,71.80
2018-07-04T16:02:25.715Z,71.80
2018-07-04T16:05:05.744Z,71.90
2018-07-04T16:07:45.973Z,71.80
2018-07-04T19:56:12.145Z,70.20
2018-07-04T19:58:52.520Z,68.70
2018-07-04T20:10:16.467Z,68.40
2018-07-04T20:21:15.504Z,66.20
2018-07-04T20:23:55.652Z,66.20
2018-07-04T20:26:36.098Z,66.40
2018-07-04T20:29:16.289Z,66.00
2018-07-04T20:31:56.505Z,66.00
2018-07-04T20:34:36.673Z,64.80
2018-07-04T20:37:16.824Z,61.50
2018-07-04T20:39:57.120Z,59.80
2018-07-04T20:42:37.275Z,58.00
2018-07-04T20:45:17.463Z,57.50
2018-07-04T20:47:57.596Z,57.90
2018-07-04T20:50:37.733Z,57.40
2018-07-04T20:53:17.823Z,57.30
2018-07-04T20:55:58.007Z,57.40
2018-07-04T20:58:38.144Z,55.90
2018-07-04T21:01:18.341Z,55.20
2018-07-04T21:03:58.274Z,54.60
2018-07-04T21:06:38.394Z,54.40
2018-07-04T21:09:18.504Z,54.90
2018-07-04T21:11:58.528Z,55.30
2018-07-04T21:14:38.476Z,55.20
2018-07-04T21:17:18.453Z,55.00
2018-07-04T21:19:58.657Z,55.60
2018-07-04T21:22:38.821Z,55.60
2018-07-04T21:25:18.762Z,55.20
2018-07-04T21:27:58.942Z,55.80
2018-07-04T21:30:39.038Z,57.00
2018-07-04T21:33:19.020Z,57.00
2018-07-04T21:35:59.143Z,58.00
2018-07-04T21:38:39.359Z,58.80
2018-07-04T21:41:19.483Z,59.30
2018-07-04T21:43:59.743Z,59.60
2018-07-04T21:46:40.038Z,60.00
2018-07-04T21:49:20.084Z,60.10
2018-07-04T21:52:00.268Z,60.20
2018-07-04T21:54:40.292Z,60.50
2018-07-04T21:57:20.445Z,60.80
2018-07-04T22:00:00.595Z,61.60
2018-07-04T22:02:40.992Z,61.80
2018-07-04T22:05:21.111Z,62.10
2018-07-04T22:08:01.266Z,62.30
2018-07-04T22:10:41.298Z,62.60
2018-07-04T22:13:21.245Z,63.20
2018-07-04T22:16:01.360Z,63.60
2018-07-04T22:18:41.412Z,64.10
2018-07-04T22:21:21.604Z,64.70
2018-07-04T22:24:02.370Z,65.00
2018-07-04T22:26:42.447Z,65.10
2018-07-04T22:29:22.632Z,65.10
2018-07-04T22:32:02.668Z,65.50
2018-07-04T22:34:43.260Z,65.50
2018-07-04T22:37:23.410Z,65.40
2018-07-04T22:40:03.468Z,65.70
2018-07-04T22:42:43.800Z,65.40
2018-07-04T22:45:23.880Z,65.30
2018-07-04T22:50:38.184Z,66.00
2018-07-04T22:53:18.368Z,65.80
2018-07-04T22:55:58.419Z,66.00
2018-07-04T22:58:38.938Z,66.00
2018-07-04T23:03:52.947Z,65.80
2018-07-04T23:06:33.382Z,65.50
2018-07-04T23:09:13.559Z,65.10
2018-07-04T23:11:53.616Z,66.40
2018-07-04T23:14:33.873Z,66.10
2018-07-04T23:17:14.061Z,66.20
2018-07-04T23:19:54.185Z,66.40
2018-07-04T23:22:34.136Z,66.50
2018-07-04T23:25:14.192Z,66.90
2018-07-04T23:27:54.218Z,67.00
2018-07-04T23:30:34.297Z,67.20
2018-07-04T23:33:14.349Z,67.40
2018-07-04T23:35:55.018Z,67.80
2018-07-04T23:38:35.550Z,67.90
2018-07-04T23:41:15.814Z,68.00
2018-07-04T23:43:55.789Z,68.30
2018-07-04T23:46:35.945Z,68.30
2018-07-04T23:49:15.973Z,68.40
2018-07-04T23:51:56.048Z,68.80
2018-07-04T23:54:36.093Z,68.90
2018-07-04T23:57:16.125Z,69.10
2018-07-04T23:59:56.229Z,69.20
